Time;durP1;ratioP1;P1;durP2;ratioP2;P2;SDS_P1;SDS_P2;PMS_P1;PMS_P2;Temp;Humidity;BMP_temperature;BMP_pressure;BME280_temperature;BME280_humidity;BME280_pressure;Samples;Min_cycle;Max_cycle;Signal;HPM_P1;HPM_P2
2022/06/11 13:04:59;;;;;;;0.80;0.70;;;26.90;50.10;;;;;;5091880;28;20606;-74
2022/06/11 13:07:33;;;;;;;0.70;0.60;;;27.10;50.10;;;;;;5091575;28;20424;-74
2022/06/11 13:10:15;;;;;;;0.80;0.70;;;27.20;47.90;;;;;;5091208;28;20425;-73
2022/06/11 13:12:56;;;;;;;0.70;0.60;;;27.10;47.20;;;;;;5091850;28;20517;-72
2022/06/11 13:15:37;;;;;;;0.70;0.60;;;27.50;47.90;;;;;;5090865;28;20433;-73
2022/06/11 13:18:24;;;;;;;0.80;0.60;;;28.10;49.20;;;;;;5090792;28;20428;-73
2022/06/11 13:20:57;;;;;;;0.70;0.60;;;28.80;47.50;;;;;;5090719;28;20869;-73
2022/06/11 13:23:35;;;;;;;0.70;0.60;;;28.90;46.60;;;;;;5090667;28;20464;-73
2022/06/11 13:26:12;;;;;;;0.70;0.60;;;28.90;47.10;;;;;;5090725;28;20487;-73
2022/06/11 13:28:55;;;;;;;0.90;0.60;;;29.10;45.30;;;;;;5090619;28;20429;-73
2022/06/11 13:31:30;;;;;;;0.80;0.60;;;29.30;45.50;;;;;;5090446;28;20465;-74
2022/06/11 13:34:10;;;;;;;0.90;0.60;;;29.40;47.20;;;;;;5090523;28;20435;-73
2022/06/11 13:36:52;;;;;;;0.80;0.60;;;29.30;44.10;;;;;;5090408;28;20459;-73
2022/06/11 13:39:29;;;;;;;0.80;0.70;;;29.50;44.70;;;;;;5090414;28;20519;-73
2022/06/11 13:42:08;;;;;;;0.70;0.60;;;29.60;46.50;;;;;;5090349;28;20875;-73
2022/06/11 13:44:57;;;;;;;0.80;0.60;;;29.10;46.80;;;;;;5090225;28;20464;-73
2022/06/11 13:47:39;;;;;;;0.70;0.60;;;29.20;46.20;;;;;;5090241;28;20421;-73
2022/06/11 13:50:39;;;;;;;0.93;0.60;;;29.40;45.40;;;;;;5090236;28;20855;-72
2022/06/11 13:56:11;;;;;;;1.27;0.60;;;29.20;45.10;;;;;;5090416;28;20408;-72
2022/06/11 13:58:59;;;;;;;1.27;0.70;;;29.00;45.70;;;;;;5089973;28;20433;-72
2022/06/11 14:01:40;;;;;;;0.60;0.50;;;29.20;47.00;;;;;;5089847;28;20475;-72
2022/06/11 14:04:26;;;;;;;0.77;0.67;;;29.50;46.00;;;;;;5089567;28;20571;-72
2022/06/11 14:06:55;;;;;;;0.70;0.60;;;29.40;43.80;;;;;;5089493;28;20429;-72
2022/06/11 14:12:55;;;;;;;0.70;0.60;;;29.50;44.60;;;;;;5089542;28;20440;-72
2022/06/11 14:15:30;;;;;;;0.70;0.70;;;29.70;43.10;;;;;;5064344;28;20811;-72
2022/06/11 14:18:00;;;;;;;0.80;0.70;;;30.20;46.50;;;;;;5076103;28;20429;-73
2022/06/11 14:20:29;;;;;;;0.70;0.50;;;30.20;44.20;;;;;;5075983;28;20449;-73
2022/06/11 14:22:58;;;;;;;0.70;0.60;;;30.30;45.30;;;;;;5075979;28;20523;-73
2022/06/11 14:25:35;;;;;;;0.70;0.60;;;30.50;44.50;;;;;;5075668;28;20852;-73
2022/06/11 14:28:53;;;;;;;0.70;0.60;;;30.90;43.80;;;;;;5076020;28;20548;-74
2022/06/11 14:31:19;;;;;;;0.80;0.70;;;31.10;42.40;;;;;;5059014;28;20466;-74
2022/06/11 14:34:12;;;;;;;0.90;0.60;;;31.50;43.00;;;;;;5075869;28;20554;-74
2022/06/11 14:36:39;;;;;;;0.90;0.50;;;31.60;43.20;;;;;;5061191;28;20894;-74
2022/06/11 14:39:07;;;;;;;0.70;0.70;;;31.90;43.10;;;;;;5075679;28;20445;-74
2022/06/11 14:41:50;;;;;;;0.70;0.50;;;32.00;42.70;;;;;;5075317;28;20887;-74
2022/06/11 14:44:23;;;;;;;0.60;0.60;;;31.90;40.70;;;;;;5075608;28;21059;-74
2022/06/11 14:46:58;;;;;;;0.70;0.60;;;31.90;42.20;;;;;;5075592;28;20445;-76
2022/06/11 14:49:46;;;;;;;0.70;0.60;;;32.00;41.10;;;;;;5075674;28;20791;-74
2022/06/11 14:52:48;;;;;;;0.67;0.60;;;32.10;42.10;;;;;;5075424;28;20457;-75
2022/06/11 14:55:29;;;;;;;0.70;0.60;;;31.20;41.00;;;;;;5075453;28;20459;-75
2022/06/11 14:58:23;;;;;;;0.70;0.57;;;30.70;42.90;;;;;;5075596;28;20487;-76
2022/06/11 15:01:00;;;;;;;0.70;0.70;;;31.10;42.50;;;;;;5069806;28;20518;-75
2022/06/11 15:03:52;;;;;;;0.70;0.60;;;30.80;42.50;;;;;;5074943;28;20493;-75
2022/06/11 15:06:45;;;;;;;0.80;0.70;;;29.90;43.00;;;;;;5074993;28;20916;-75
2022/06/11 15:09:43;;;;;;;1.37;0.70;;;29.60;43.80;;;;;;5075246;28;20426;-73
2022/06/11 15:12:39;;;;;;;0.70;0.60;;;29.50;45.70;;;;;;5074811;28;21022;-74
2022/06/11 15:15:30;;;;;;;0.70;0.60;;;29.70;45.70;;;;;;5075117;28;20425;-75
2022/06/11 15:18:03;;;;;;;0.80;0.80;;;29.60;45.40;;;;;;5075038;28;20445;-75
2022/06/11 15:20:33;;;;;;;0.70;0.50;;;29.90;45.20;;;;;;5074883;28;20434;-75
2022/06/11 15:23:04;;;;;;;0.70;0.60;;;29.90;44.70;;;;;;5074769;28;20499;-75
2022/06/11 15:25:32;;;;;;;0.70;0.60;;;30.10;44.10;;;;;;5074670;28;20433;-75
2022/06/11 15:28:02;;;;;;;0.90;0.70;;;30.10;43.70;;;;;;5074359;28;20441;-75
2022/06/11 15:30:32;;;;;;;0.70;0.50;;;30.40;43.70;;;;;;5075218;28;20819;-75
2022/06/11 15:33:17;;;;;;;0.70;0.60;;;30.40;44.00;;;;;;5074671;28;20445;-74
2022/06/11 15:35:55;;;;;;;0.80;0.60;;;30.20;44.00;;;;;;5074665;28;20456;-75
2022/06/11 15:38:24;;;;;;;0.77;0.63;;;30.10;44.80;;;;;;5074588;28;20479;-75
2022/06/11 15:40:55;;;;;;;0.70;0.60;;;30.10;43.90;;;;;;5074493;28;20535;-75
2022/06/11 15:43:25;;;;;;;3.23;0.70;;;30.30;44.10;;;;;;5074450;28;20474;-76
2022/06/11 15:45:58;;;;;;;0.70;0.60;;;30.50;44.80;;;;;;5074517;28;20430;-75
2022/06/11 15:48:36;;;;;;;0.70;0.60;;;30.60;43.50;;;;;;5074378;28;20434;-75
2022/06/11 15:51:06;;;;;;;0.70;0.60;;;30.50;44.00;;;;;;5074256;28;20475;-75
2022/06/11 15:55:12;;;;;;;0.70;0.60;;;30.50;43.90;;;;;;5074551;28;20445;-76
2022/06/11 15:56:29;;;;;;;0.90;0.70;;;30.50;43.80;;;;;;5073771;28;20452;-75
2022/06/11 15:59:06;;;;;;;0.70;0.60;;;30.70;44.50;;;;;;5074168;28;20516;-76
2022/06/11 16:01:35;;;;;;;0.70;0.60;;;30.70;44.80;;;;;;5074068;28;20465;-75
2022/06/11 16:04:02;;;;;;;1.30;0.67;;;30.30;43.30;;;;;;5073659;28;20576;-75
2022/06/11 16:06:30;;;;;;;0.80;0.67;;;29.90;44.40;;;;;;5074013;28;20491;-75
2022/06/11 16:09:01;;;;;;;0.70;0.70;;;29.80;44.60;;;;;;5073991;28;20450;-75
2022/06/11 16:11:31;;;;;;;0.73;0.60;;;29.30;46.10;;;;;;5073895;28;20476;-75
2022/06/11 16:14:01;;;;;;;0.70;0.63;;;29.20;45.50;;;;;;5073888;28;20441;-76
2022/06/11 16:16:31;;;;;;;0.70;0.60;;;29.40;45.90;;;;;;5073834;28;20442;-75
2022/06/11 16:19:18;;;;;;;1.30;0.70;;;29.50;45.10;;;;;;5073805;28;20450;-75
2022/06/11 16:21:54;;;;;;;0.80;0.70;;;29.50;45.50;;;;;;5073718;28;20469;-75
2022/06/11 16:24:22;;;;;;;0.70;0.60;;;29.20;46.10;;;;;;5073732;28;20523;-76
2022/06/11 16:26:50;;;;;;;0.70;0.67;;;29.20;46.50;;;;;;5073670;28;20500;-76
2022/06/11 16:29:22;;;;;;;1.03;0.63;;;29.30;46.10;;;;;;5073668;28;20438;-75
2022/06/11 16:31:49;;;;;;;0.80;0.73;;;29.00;46.70;;;;;;5073696;28;20499;-75
2022/06/11 16:34:18;;;;;;;0.70;0.70;;;28.90;47.40;;;;;;5073600;28;20438;-75
2022/06/11 16:36:47;;;;;;;0.70;0.70;;;28.80;47.80;;;;;;5073564;28;20507;-75
2022/06/11 16:39:31;;;;;;;0.70;0.70;;;28.90;48.00;;;;;;5073334;28;20453;-76
2022/06/11 16:44:46;;;;;;;0.80;0.70;;;29.40;47.10;;;;;;5073396;28;20479;-76
2022/06/11 16:47:15;;;;;;;0.70;0.60;;;29.40;46.60;;;;;;5073996;28;20495;-75
2022/06/11 16:58:03;;;;;;;3.67;3.57;;;29.20;47.80;;;;;;5073426;28;20756;-76
2022/06/11 17:00:36;;;;;;;9.13;8.73;;;29.10;48.30;;;;;;5073971;28;20478;-75
2022/06/11 17:03:09;;;;;;;1.10;1.00;;;28.90;48.30;;;;;;5074255;28;20458;-75
2022/06/11 17:05:47;;;;;;;0.80;0.70;;;29.10;48.00;;;;;;5074539;28;20990;-76
2022/06/11 17:08:15;;;;;;;0.70;0.60;;;28.80;47.70;;;;;;5074684;28;20896;-77
2022/06/11 17:10:45;;;;;;;0.80;0.60;;;28.70;48.90;;;;;;5074163;28;20792;-75
2022/06/11 17:13:21;;;;;;;0.70;0.60;;;28.70;48.80;;;;;;5073405;28;20804;-77
2022/06/11 17:16:00;;;;;;;0.80;0.70;;;28.70;49.50;;;;;;5074736;28;20436;-78
2022/06/11 17:18:32;;;;;;;0.80;0.60;;;28.80;49.30;;;;;;5074910;28;20970;-78
2022/06/11 17:21:03;;;;;;;0.70;0.60;;;28.80;49.30;;;;;;5074945;28;20470;-78
2022/06/11 17:23:33;;;;;;;0.90;0.60;;;28.70;49.30;;;;;;5087583;22;20498;-71
2022/06/11 17:26:04;;;;;;;1.30;0.70;;;28.70;49.40;;;;;;5052723;28;20840;-71
2022/06/11 17:28:33;;;;;;;0.80;0.70;;;28.70;49.10;;;;;;5053080;28;20430;-72
2022/06/11 17:31:00;;;;;;;0.70;0.70;;;28.70;49.20;;;;;;5053002;28;20813;-74
2022/06/11 17:33:27;;;;;;;0.70;0.70;;;28.60;49.00;;;;;;5052669;28;20817;-74
2022/06/11 17:35:55;;;;;;;1.03;0.70;;;28.30;49.40;;;;;;5052992;28;20520;-72
2022/06/11 17:38:29;;;;;;;0.70;0.60;;;28.40;49.70;;;;;;5052935;28;20518;-73
2022/06/11 17:40:56;;;;;;;0.90;0.70;;;28.40;49.60;;;;;;5052947;28;20832;-72
2022/06/11 17:43:23;;;;;;;0.70;0.60;;;28.50;49.60;;;;;;5052409;28;20887;-71
2022/06/11 17:45:51;;;;;;;0.70;0.70;;;28.60;49.90;;;;;;5052706;28;20478;-71
2022/06/11 17:48:17;;;;;;;0.90;0.60;;;28.50;49.40;;;;;;5052719;28;20442;-70
2022/06/11 17:50:44;;;;;;;1.00;0.70;;;28.50;49.30;;;;;;5055343;28;20519;-71
2022/06/11 17:53:15;;;;;;;0.80;0.60;;;28.50;49.70;;;;;;5056368;28;20470;-73
2022/06/11 17:55:43;;;;;;;0.70;0.70;;;28.50;49.20;;;;;;5056273;28;20800;-72
2022/06/11 17:58:10;;;;;;;0.80;0.70;;;28.50;49.30;;;;;;5056517;28;20446;-72
2022/06/11 18:00:39;;;;;;;0.63;0.60;;;28.60;50.30;;;;;;5056424;28;20442;-73
2022/06/11 18:03:12;;;;;;;0.70;0.70;;;28.50;49.90;;;;;;5055992;28;20890;-73
2022/06/11 18:05:41;;;;;;;0.77;0.70;;;28.60;49.90;;;;;;5056234;28;20470;-71
2022/06/11 18:08:10;;;;;;;0.80;0.70;;;28.50;49.80;;;;;;5056261;28;20497;-71
2022/06/11 18:10:39;;;;;;;0.73;0.70;;;28.40;50.00;;;;;;5056290;28;20445;-71
2022/06/11 18:13:08;;;;;;;0.70;0.60;;;28.30;50.40;;;;;;5056193;28;20469;-71
2022/06/11 18:15:39;;;;;;;0.80;0.60;;;28.30;50.50;;;;;;5056160;28;20474;-71
2022/06/11 18:18:08;;;;;;;0.80;0.70;;;28.20;50.70;;;;;;5056099;28;20446;-71
2022/06/11 18:20:35;;;;;;;2.50;0.90;;;28.20;51.00;;;;;;5056117;28;20446;-71
2022/06/11 18:25:52;;;;;;;0.70;0.67;;;28.10;51.10;;;;;;5055940;28;20585;-69
2022/06/11 18:28:20;;;;;;;0.80;0.70;;;28.00;51.20;;;;;;5056110;28;20427;-71
2022/06/11 18:30:47;;;;;;;0.70;0.60;;;28.00;51.10;;;;;;5055924;28;20454;-71
2022/06/11 18:33:14;;;;;;;0.80;0.70;;;27.90;51.20;;;;;;5055759;28;20462;-72
2022/06/11 18:35:42;;;;;;;0.87;0.60;;;28.00;51.20;;;;;;5055852;28;20492;-72
2022/06/11 18:38:09;;;;;;;0.70;0.60;;;27.90;51.40;;;;;;5055471;28;20941;-71
2022/06/11 18:40:36;;;;;;;0.70;0.60;;;27.90;51.70;;;;;;5055687;28;20453;-74
2022/06/11 18:43:05;;;;;;;0.70;0.60;;;27.90;51.70;;;;;;5056615;28;20833;-73
2022/06/11 18:45:33;;;;;;;0.70;0.60;;;27.90;51.70;;;;;;5055625;28;20481;-73
2022/06/11 18:48:00;;;;;;;1.10;0.80;;;27.90;51.90;;;;;;5055292;28;20942;-74
2022/06/11 18:50:29;;;;;;;0.77;0.77;;;27.90;51.80;;;;;;5055198;28;20800;-74
2022/06/11 18:52:55;;;;;;;1.43;0.83;;;27.90;51.90;;;;;;5055765;28;20857;-74
2022/06/11 18:55:22;;;;;;;0.73;0.70;;;27.90;52.60;;;;;;5055435;28;20453;-74
2022/06/11 18:57:49;;;;;;;1.00;0.80;;;27.80;52.30;;;;;;5055474;28;20791;-73
2022/06/11 19:00:18;;;;;;;1.57;0.97;;;27.80;52.40;;;;;;5055306;28;20446;-74
2022/06/11 19:02:46;;;;;;;0.80;0.67;;;27.70;52.90;;;;;;5055216;28;20608;-74
2022/06/11 19:05:13;;;;;;;0.70;0.60;;;27.70;53.20;;;;;;5055192;28;20482;-74
2022/06/11 19:07:40;;;;;;;0.70;0.70;;;27.70;53.60;;;;;;5055174;28;20438;-73
2022/06/11 19:10:08;;;;;;;0.70;0.60;;;27.60;54.00;;;;;;5055239;28;20442;-73
2022/06/11 19:12:35;;;;;;;0.80;0.70;;;27.60;54.00;;;;;;5055069;28;20520;-74
2022/06/11 19:15:02;;;;;;;0.70;0.60;;;27.50;54.20;;;;;;5055048;28;20443;-74
2022/06/11 19:17:28;;;;;;;0.87;0.67;;;27.40;54.00;;;;;;5055013;28;20443;-74
2022/06/11 19:19:57;;;;;;;0.70;0.70;;;27.40;54.40;;;;;;5054948;28;20458;-74
2022/06/11 19:22:24;;;;;;;0.70;0.60;;;27.30;54.20;;;;;;5054730;28;20446;-73
2022/06/11 19:24:51;;;;;;;1.53;1.00;;;27.30;54.90;;;;;;5054541;28;20463;-74
2022/06/11 19:27:18;;;;;;;0.70;0.60;;;27.20;55.20;;;;;;5054505;28;20851;-73
2022/06/11 19:29:45;;;;;;;0.80;0.70;;;27.10;55.50;;;;;;5054739;28;20859;-74
2022/06/11 19:32:12;;;;;;;0.70;0.60;;;27.00;55.90;;;;;;5054585;28;20442;-73
2022/06/11 19:34:38;;;;;;;0.80;0.70;;;27.00;56.10;;;;;;5054657;28;20439;-73
2022/06/11 19:37:07;;;;;;;1.00;0.90;;;26.90;55.90;;;;;;5054609;28;20504;-73
2022/06/11 19:39:38;;;;;;;0.80;0.70;;;26.80;56.10;;;;;;5054553;28;20454;-73
2022/06/11 19:42:11;;;;;;;0.80;0.70;;;26.80;56.50;;;;;;5054307;28;20435;-73
2022/06/11 19:44:38;;;;;;;0.70;0.70;;;26.70;56.60;;;;;;5054494;28;20471;-73
2022/06/11 19:47:05;;;;;;;0.80;0.77;;;26.60;56.90;;;;;;5054441;28;20446;-73
2022/06/11 19:49:33;;;;;;;0.70;0.70;;;26.50;57.10;;;;;;5055233;28;20837;-72
2022/06/11 19:52:00;;;;;;;0.70;0.70;;;26.40;57.40;;;;;;5054087;28;20945;-73
2022/06/11 19:54:28;;;;;;;0.87;0.87;;;26.30;58.00;;;;;;5054191;28;20473;-73
2022/06/11 19:56:55;;;;;;;0.70;0.70;;;26.20;58.20;;;;;;5054270;28;20446;-71
2022/06/11 19:59:22;;;;;;;0.70;0.70;;;26.10;58.40;;;;;;5053946;28;20995;-72
2022/06/11 20:01:48;;;;;;;0.80;0.70;;;26.00;58.40;;;;;;5054197;28;20478;-73
2022/06/11 20:04:16;;;;;;;0.80;0.70;;;26.00;58.40;;;;;;5054090;28;20462;-72
2022/06/11 20:06:44;;;;;;;0.70;0.67;;;25.90;58.70;;;;;;5054085;28;20484;-70
2022/06/11 20:09:13;;;;;;;0.80;0.70;;;25.90;58.70;;;;;;5053772;28;20801;-71
2022/06/11 20:11:42;;;;;;;0.90;0.80;;;25.80;59.00;;;;;;5053930;28;20454;-71
2022/06/11 20:14:10;;;;;;;0.70;0.70;;;25.70;59.00;;;;;;5053378;28;20516;-72
2022/06/11 20:16:39;;;;;;;0.80;0.80;;;25.60;59.20;;;;;;5053891;28;20450;-71
2022/06/11 20:19:10;;;;;;;1.00;0.70;;;25.50;59.30;;;;;;5053942;28;20541;-71
2022/06/11 20:21:36;;;;;;;0.90;0.80;;;25.50;59.60;;;;;;5053924;28;20435;-72
2022/06/11 20:24:04;;;;;;;0.70;0.70;;;25.40;59.80;;;;;;5053357;28;20891;-72
2022/06/11 20:26:30;;;;;;;0.80;0.80;;;25.30;59.90;;;;;;5053689;28;20485;-72
2022/06/11 20:28:58;;;;;;;0.77;0.70;;;25.30;59.70;;;;;;5053718;28;20865;-72
2022/06/11 20:31:25;;;;;;;0.80;0.80;;;25.20;59.80;;;;;;5053271;28;20870;-72
2022/06/11 20:33:52;;;;;;;0.70;0.70;;;25.10;59.90;;;;;;5053489;28;20469;-72
2022/06/11 20:36:18;;;;;;;0.70;0.70;;;25.10;60.00;;;;;;5053506;28;20442;-73
2022/06/11 20:38:47;;;;;;;6.10;1.50;;;25.00;60.10;;;;;;5053459;28;20458;-71
2022/06/11 20:41:14;;;;;;;0.70;0.67;;;25.00;59.90;;;;;;5053519;28;20564;-72
2022/06/11 20:43:41;;;;;;;2.10;0.90;;;25.00;59.70;;;;;;5053365;28;20475;-72
2022/06/11 20:46:09;;;;;;;0.80;0.67;;;24.90;60.00;;;;;;5053339;28;20551;-72
2022/06/11 20:48:37;;;;;;;0.80;0.60;;;24.90;60.00;;;;;;5053396;28;20504;-72
2022/06/11 20:51:13;;;;;;;0.70;0.60;;;24.80;60.60;;;;;;5053337;28;20465;-72
2022/06/11 20:53:40;;;;;;;0.80;0.70;;;24.80;60.70;;;;;;5053308;28;20465;-72
2022/06/11 20:56:09;;;;;;;0.70;0.60;;;24.70;60.80;;;;;;5053244;28;20468;-72
2022/06/11 20:58:37;;;;;;;0.80;0.70;;;24.70;60.80;;;;;;5053167;28;20446;-72
